Aeroporto :
LOGIN :

Iscrizione | Disclaimer

   EN    FR    IT 

 










Sommario :    VFR   VFR Marginale   IFR   IFR Intensivo   IFR Molto Intensivo
Visibilità : 
Base nubi : 
>= 8 km
>= 3000ft
5 / 8 km
1000 / 3000 ft
1500m / 5 km
500 / 1000 ft
800 / 1500m
200 / 500 ft
< 800m
< 200 ft
Simboli :   Temporali  Nebbia  Neve Forte  Precipitazioni Forti  Vento > 20 kt
SIGMETs :   Varie  Temporali  Ghiacco  Turbolenza  Onda orograficha  Ceneri Vulcaniche







- Altitudine del aeroporto : 468 ft
- Codice IATA : GRO


LEGE - Girona Costa Brava

ULTIMO METAR :
  • 240630Z 06001KT 9999 FEW030 16/15 Q1014

METARs OBSOLETI :
  • 240600Z VRB01KT 8000 FEW035 16/15 Q1014
  • 240530Z VRB02KT 8000 FEW075 15/14 Q1014
  • 240500Z VRB02KT 8000 FEW075 15/14 Q1014
  • 240430Z 31004KT 7000 FEW075 15/14 Q1014
  • 240400Z 31002KT 7000 FEW075 15/14 Q1014

TAF TAF LEGE
Valido dal 24 a 06 ore il 25 a 06 ore UTC


240500Z 2406/2506 VRB03KT 9999 FEW030 TX20/2413Z TN12/2506Z
TEMPO 2408/2418 3000 SHRA BKN010 SCT025TCU
TEMPO 2411/2418 17007KT
Nessun NOTAM noto per questo aeroporto.
1 SIGMET conosciuto per la FIR Barcelona (LECB) :
 
Temporali affogati
LECB SIGMET 2 VALID 240412/240800 LEVA
LECB BARCELONA FIR/UIR EMBD TS OBS AT 0412Z WI N4018 W00051 - N3938 E00022 - N4111 E00153 - N4204 W00015 - N4018 W00051 TOP FL300 MOV NE NC=



MetMap, La meteo Aeronautica in un colpo d'occhio ! - Copyright ORBIFLY Dicembre 2007 - Disclaimer

ORBIFLY MET'MAP TEAM :

Programmazione e sviluppo : Alexandra Zaïnal
Concezione e sviluppo : Baudouin d'Aumeries
Co-Programmazione e sviluppo : Marc-Olivier Méhu
Supporto tecnico e logistico : Manuel Goepfert
Aiuto per la traduzione : Arnaldo La Scala

Contatto : metmap@orbifly.com




FONTI E CREDITI :

   NOAA